createdAt,value
2018-06-05T00:01:19.821Z,22.50
2018-06-05T00:03:48.085Z,22.40
2018-06-05T00:06:16.366Z,22.40
2018-06-05T00:08:44.659Z,22.40
2018-06-05T00:11:12.909Z,22.20
2018-06-05T00:16:09.192Z,22.10
2018-06-05T00:18:37.471Z,22.00
2018-06-05T00:21:05.716Z,22.00
2018-06-05T00:23:33.994Z,22.10
2018-06-05T00:26:02.282Z,22.20
2018-06-05T00:28:30.529Z,22.20
2018-06-05T00:30:58.782Z,22.10
2018-06-05T00:33:27.056Z,22.00
2018-06-05T00:35:55.308Z,22.00
2018-06-05T00:38:23.632Z,21.90
2018-06-05T00:40:51.883Z,21.90
2018-06-05T00:43:20.174Z,21.90
2018-06-05T00:45:51.039Z,21.80
2018-06-05T00:48:19.307Z,21.70
2018-06-05T00:50:47.551Z,21.70
2018-06-05T00:53:15.822Z,21.70
2018-06-05T00:55:44.075Z,21.70
2018-06-05T00:58:12.357Z,21.70
2018-06-05T01:03:08.598Z,21.60
2018-06-05T01:05:36.900Z,21.70
2018-06-05T01:10:33.159Z,21.60
2018-06-05T01:13:01.442Z,21.60
2018-06-05T01:15:29.734Z,21.50
2018-06-05T01:17:58.019Z,21.40
2018-06-05T01:20:26.356Z,21.50
2018-06-05T01:22:54.622Z,21.50
2018-06-05T01:25:22.877Z,21.50
2018-06-05T01:27:51.166Z,21.50
2018-06-05T01:30:19.443Z,21.50
2018-06-05T01:32:47.732Z,21.60
2018-06-05T01:35:16.002Z,21.50
2018-06-05T01:37:44.255Z,21.50
2018-06-05T01:40:12.488Z,21.40
2018-06-05T01:42:40.734Z,21.20
2018-06-05T01:45:09.008Z,20.90
2018-06-05T01:50:05.276Z,20.60
2018-06-05T01:52:33.542Z,20.40
2018-06-05T01:55:01.782Z,20.50
2018-06-05T01:57:30.097Z,20.50
2018-06-05T01:59:58.354Z,20.60
2018-06-05T02:02:26.663Z,20.70
2018-06-05T02:04:54.915Z,20.70
2018-06-05T02:07:23.165Z,20.80
2018-06-05T02:09:51.430Z,20.90
2018-06-05T02:12:19.710Z,20.80
2018-06-05T02:14:47.973Z,20.80
2018-06-05T02:19:44.249Z,20.80
2018-06-05T02:22:12.539Z,20.70
2018-06-05T02:24:40.910Z,20.60
2018-06-05T02:27:09.169Z,20.40
2018-06-05T02:29:37.498Z,20.30
2018-06-05T02:34:33.750Z,20.20
2018-06-05T02:37:02.006Z,20.10
2018-06-05T02:39:30.336Z,20.00
2018-06-05T02:41:58.580Z,20.10
2018-06-05T02:44:26.836Z,20.10
2018-06-05T02:46:55.088Z,20.00
2018-06-05T02:49:23.357Z,20.00
2018-06-05T02:51:51.654Z,20.00
2018-06-05T02:54:19.927Z,20.00
2018-06-05T02:56:48.195Z,20.00
2018-06-05T02:59:16.444Z,19.90
2018-06-05T03:04:12.667Z,20.20
2018-06-05T03:06:40.899Z,20.10
2018-06-05T03:09:09.173Z,20.20
2018-06-05T03:11:37.813Z,20.30
2018-06-05T03:14:06.057Z,20.20
2018-06-05T03:16:34.362Z,20.00
2018-06-05T03:19:02.630Z,20.00
2018-06-05T03:21:30.894Z,20.00
2018-06-05T03:23:59.136Z,20.10
2018-06-05T03:28:55.442Z,20.10
2018-06-05T03:31:23.673Z,20.10
2018-06-05T03:33:51.924Z,20.20
2018-06-05T03:36:20.192Z,20.20
2018-06-05T03:38:48.445Z,20.10
2018-06-05T03:41:16.687Z,20.00
2018-06-05T03:43:44.921Z,20.10
2018-06-05T03:46:13.163Z,20.20
2018-06-05T03:48:41.432Z,20.10
2018-06-05T03:51:09.702Z,20.10
2018-06-05T03:53:38.033Z,20.20
2018-06-05T03:56:06.320Z,20.20
2018-06-05T03:58:34.691Z,20.10
2018-06-05T04:01:03.021Z,20.20
2018-06-05T04:03:31.285Z,20.20
2018-06-05T04:05:59.566Z,20.10
2018-06-05T04:08:27.874Z,20.10
2018-06-05T04:10:56.142Z,20.10
2018-06-05T04:13:24.403Z,20.10
2018-06-05T04:15:52.682Z,20.10
2018-06-05T04:18:20.957Z,20.20
2018-06-05T04:20:49.195Z,20.20
2018-06-05T04:23:17.478Z,20.20
2018-06-05T04:25:45.777Z,20.20
2018-06-05T04:28:14.036Z,20.20
2018-06-05T04:30:42.290Z,20.20
2018-06-05T04:33:10.662Z,20.10
2018-06-05T04:35:39.075Z,20.00
2018-06-05T04:38:07.374Z,20.10
2018-06-05T04:40:35.614Z,19.90
2018-06-05T04:43:03.914Z,19.80
2018-06-05T04:45:32.148Z,19.90
2018-06-05T04:48:00.423Z,19.90
2018-06-05T04:50:28.918Z,19.90
2018-06-05T04:52:57.187Z,20.00
2018-06-05T04:55:25.455Z,20.00
2018-06-05T04:57:53.723Z,20.00
2018-06-05T05:00:21.988Z,20.00
2018-06-05T05:02:50.270Z,20.00
2018-06-05T05:05:18.518Z,20.00
2018-06-05T05:07:46.840Z,20.00
2018-06-05T05:10:15.113Z,20.00
2018-06-05T05:12:43.374Z,20.00
2018-06-05T05:15:11.593Z,20.00
2018-06-05T05:17:39.925Z,20.10
2018-06-05T05:20:08.180Z,20.00
2018-06-05T05:22:36.423Z,20.10
2018-06-05T05:25:04.711Z,20.00
2018-06-05T05:27:32.970Z,20.10
2018-06-05T05:30:01.247Z,20.10
2018-06-05T05:32:29.487Z,20.20
2018-06-05T05:34:57.793Z,20.20
2018-06-05T05:37:26.062Z,20.20
2018-06-05T05:39:54.366Z,20.30
2018-06-05T05:42:22.611Z,20.30
2018-06-05T05:44:50.868Z,20.30
2018-06-05T05:49:47.117Z,20.20
2018-06-05T05:52:15.396Z,20.20
2018-06-05T05:54:43.651Z,20.20
2018-06-05T05:57:11.929Z,20.10
2018-06-05T05:59:40.191Z,20.00
2018-06-05T06:02:08.461Z,19.90
2018-06-05T06:04:36.797Z,19.80
2018-06-05T06:07:05.135Z,19.90
2018-06-05T06:09:33.410Z,19.80
2018-06-05T06:12:01.696Z,19.80
2018-06-05T06:14:29.966Z,19.90
2018-06-05T06:16:58.242Z,19.90
2018-06-05T06:19:26.516Z,20.00
2018-06-05T06:21:54.748Z,20.00
2018-06-05T06:24:22.996Z,20.10
2018-06-05T06:26:51.367Z,20.20
2018-06-05T06:29:19.660Z,20.30
2018-06-05T06:31:47.913Z,20.20
2018-06-05T06:34:16.167Z,20.20
2018-06-05T06:36:44.460Z,20.30
2018-06-05T06:39:12.737Z,20.30
2018-06-05T06:41:40.987Z,20.30
2018-06-05T06:44:09.251Z,20.40
2018-06-05T06:46:37.612Z,20.40
2018-06-05T06:49:05.936Z,20.50
2018-06-05T06:51:34.162Z,20.50
2018-06-05T06:56:30.406Z,20.60
2018-06-05T06:58:58.682Z,20.70
2018-06-05T07:01:26.933Z,20.80
2018-06-05T07:03:55.211Z,20.90
2018-06-05T07:06:23.471Z,20.90
2018-06-05T07:08:51.752Z,21.00
2018-06-05T07:11:20.006Z,21.00
2018-06-05T07:13:48.305Z,21.00
2018-06-05T07:16:16.568Z,20.90
2018-06-05T07:18:44.846Z,21.00
2018-06-05T07:21:13.081Z,21.00
2018-06-05T07:23:41.381Z,21.10
2018-06-05T07:26:09.678Z,21.10
2018-06-05T07:28:37.986Z,21.10
2018-06-05T07:33:34.264Z,21.10
2018-06-05T07:36:02.519Z,21.10
2018-06-05T07:38:30.767Z,21.20
2018-06-05T07:40:59.051Z,21.30
2018-06-05T07:43:27.317Z,21.30
2018-06-05T07:45:55.549Z,21.30
2018-06-05T07:48:23.809Z,21.20
2018-06-05T07:50:52.071Z,21.30
2018-06-05T07:53:20.355Z,21.20
2018-06-05T07:55:48.584Z,21.30
2018-06-05T07:58:16.832Z,21.30
2018-06-05T08:00:45.087Z,21.20
2018-06-05T08:03:13.327Z,21.20
2018-06-05T08:05:41.585Z,21.20
2018-06-05T08:08:09.863Z,21.20
2018-06-05T08:10:38.117Z,21.00
2018-06-05T08:13:06.368Z,21.20
2018-06-05T08:15:34.608Z,21.20
2018-06-05T08:18:02.879Z,21.30
2018-06-05T08:20:31.145Z,21.40
2018-06-05T08:22:59.401Z,21.50
2018-06-05T08:27:55.653Z,21.70
2018-06-05T08:30:23.894Z,21.90
2018-06-05T08:32:52.143Z,21.90
2018-06-05T08:37:48.444Z,22.30
2018-06-05T08:40:16.727Z,22.40
2018-06-05T08:42:44.968Z,22.50
2018-06-05T08:45:13.310Z,22.60
2018-06-05T08:47:41.613Z,22.80
2018-06-05T08:50:09.865Z,22.90
2018-06-05T08:55:06.196Z,22.90
2018-06-05T08:57:34.458Z,22.60
2018-06-05T09:00:02.744Z,22.70
2018-06-05T09:02:31.002Z,22.50
2018-06-05T09:07:27.288Z,22.50
2018-06-05T09:09:55.622Z,22.60
2018-06-05T09:12:23.901Z,22.60
2018-06-05T09:14:52.167Z,22.70
2018-06-05T09:17:20.444Z,22.60
2018-06-05T09:19:48.714Z,22.70
2018-06-05T09:22:17.011Z,22.80
2018-06-05T09:24:45.298Z,22.90
2018-06-05T09:27:13.563Z,22.90
2018-06-05T09:29:41.803Z,23.00
2018-06-05T09:32:10.079Z,23.00
2018-06-05T09:34:38.395Z,23.10
2018-06-05T09:37:06.668Z,23.10
2018-06-05T09:39:34.976Z,23.10
2018-06-05T09:42:03.180Z,23.10
2018-06-05T09:44:31.464Z,22.90
2018-06-05T09:46:59.766Z,22.80
2018-06-05T09:49:28.010Z,23.00
2018-06-05T09:51:56.267Z,22.90
2018-06-05T09:54:24.540Z,22.90
2018-06-05T09:56:52.775Z,23.00
2018-06-05T09:59:21.074Z,23.00
2018-06-05T10:01:49.321Z,23.10
2018-06-05T10:04:17.627Z,23.20
2018-06-05T10:06:45.887Z,23.30
2018-06-05T10:09:14.212Z,23.40
2018-06-05T10:11:42.554Z,23.30
2018-06-05T10:14:10.870Z,23.40
2018-06-05T10:16:39.150Z,23.60
2018-06-05T10:19:07.422Z,23.80
2018-06-05T10:21:35.660Z,23.80
2018-06-05T10:24:03.941Z,23.70
2018-06-05T10:26:32.228Z,23.70
2018-06-05T10:29:00.508Z,23.80
2018-06-05T10:31:28.744Z,23.70
2018-06-05T10:33:57.016Z,23.90
2018-06-05T10:36:25.285Z,24.10
2018-06-05T10:38:53.563Z,24.10
2018-06-05T10:41:21.834Z,23.90
2018-06-05T10:46:18.071Z,24.10
2018-06-05T10:48:46.418Z,24.10
2018-06-05T10:51:14.704Z,24.20
2018-06-05T10:53:43.021Z,23.90
2018-06-05T10:56:11.282Z,24.10
2018-06-05T10:58:39.615Z,24.20
2018-06-05T11:01:07.878Z,24.30
2018-06-05T11:03:36.143Z,24.30
2018-06-05T11:06:04.514Z,24.50
2018-06-05T11:08:32.727Z,24.60
2018-06-05T11:11:01.021Z,24.80
2018-06-05T11:13:29.293Z,25.00
2018-06-05T11:15:57.533Z,25.20
2018-06-05T11:18:25.776Z,25.50
2018-06-05T11:20:54.038Z,25.40
2018-06-05T11:23:22.295Z,25.40
2018-06-05T11:25:50.554Z,25.40
2018-06-05T11:28:18.832Z,25.40
2018-06-05T11:30:47.084Z,25.70
2018-06-05T11:33:15.317Z,25.80
2018-06-05T11:35:43.601Z,25.90
2018-06-05T11:38:11.843Z,26.10
2018-06-05T11:40:40.116Z,26.00
2018-06-05T11:43:08.467Z,26.20
2018-06-05T11:45:36.713Z,26.40
2018-06-05T11:48:05.251Z,26.50
2018-06-05T11:50:33.541Z,26.60
2018-06-05T11:53:01.819Z,26.50
2018-06-05T11:55:30.074Z,26.80
2018-06-05T11:57:58.355Z,27.00
2018-06-05T12:00:26.597Z,27.00
2018-06-05T12:02:54.858Z,27.40
2018-06-05T12:05:23.139Z,28.00
2018-06-05T12:07:51.407Z,28.70
2018-06-05T12:10:19.666Z,29.20
2018-06-05T12:12:47.920Z,29.60
2018-06-05T12:15:16.178Z,30.10
2018-06-05T12:17:44.451Z,30.10
2018-06-05T12:20:12.726Z,30.00
2018-06-05T12:22:40.983Z,30.20
2018-06-05T12:25:09.271Z,30.60
2018-06-05T12:27:37.545Z,31.60
2018-06-05T12:30:05.824Z,32.50
2018-06-05T12:32:34.101Z,32.90
2018-06-05T12:39:58.357Z,32.40
2018-06-05T12:42:26.678Z,32.10
2018-06-05T12:44:55.072Z,31.80
2018-06-05T12:47:23.361Z,31.50
2018-06-05T12:49:51.592Z,31.30
2018-06-05T12:52:19.917Z,31.20
2018-06-05T12:57:16.213Z,31.20
2018-06-05T12:59:44.455Z,31.10
2018-06-05T13:02:12.706Z,30.70
2018-06-05T13:04:40.971Z,30.50
2018-06-05T13:07:09.248Z,30.20
2018-06-05T13:09:37.542Z,30.00
2018-06-05T13:12:05.838Z,29.60
2018-06-05T13:14:34.071Z,29.40
2018-06-05T13:17:02.313Z,29.10
2018-06-05T13:19:30.595Z,28.70
2018-06-05T13:21:58.867Z,28.60
2018-06-05T13:24:27.162Z,28.40
2018-06-05T13:27:05.421Z,28.30
2018-06-05T13:29:34.123Z,28.20
2018-06-05T13:32:02.427Z,27.80
2018-06-05T13:34:30.702Z,27.80
2018-06-05T13:36:58.980Z,27.50
2018-06-05T13:39:27.272Z,27.70
2018-06-05T13:41:55.563Z,27.30
2018-06-05T13:44:23.825Z,27.00
2018-06-05T13:46:52.096Z,27.30
2018-06-05T13:51:48.328Z,27.90
2018-06-05T13:54:16.604Z,27.90
2018-06-05T13:56:44.902Z,28.20
2018-06-05T13:59:13.164Z,28.60
2018-06-05T14:01:41.411Z,29.00
2018-06-05T14:04:09.674Z,29.30
2018-06-05T14:06:38.070Z,29.50
2018-06-05T14:09:08.291Z,29.60
2018-06-05T14:11:36.469Z,29.60
2018-06-05T14:14:04.899Z,29.60
2018-06-05T14:16:33.148Z,29.80
2018-06-05T14:19:01.426Z,29.70
2018-06-05T14:21:29.719Z,29.80
2018-06-05T14:23:57.967Z,29.70
2018-06-05T14:28:54.300Z,30.20
2018-06-05T14:31:22.507Z,30.90
2018-06-05T14:33:50.750Z,31.40
2018-06-05T14:36:19.045Z,31.50
2018-06-05T14:38:47.325Z,31.40
2018-06-05T14:41:15.615Z,31.00
2018-06-05T14:43:43.861Z,31.60
2018-06-05T14:46:12.164Z,32.30
2018-06-05T14:51:08.467Z,32.90
2018-06-05T14:53:36.787Z,33.30
2018-06-05T14:56:05.065Z,33.60
2018-06-05T14:58:33.311Z,34.30
2018-06-05T15:01:01.562Z,35.50
2018-06-05T15:03:29.847Z,36.70
2018-06-05T15:05:58.096Z,38.10
2018-06-05T15:08:26.587Z,39.50
2018-06-05T15:10:54.823Z,40.10
2018-06-05T15:13:23.113Z,39.60
2018-06-05T15:15:51.386Z,38.60
2018-06-05T15:18:19.695Z,37.70
2018-06-05T15:20:47.939Z,37.90
2018-06-05T15:23:16.200Z,38.60
2018-06-05T15:25:44.467Z,39.20
2018-06-05T15:28:12.706Z,40.20
2018-06-05T15:30:40.944Z,40.80
2018-06-05T15:35:37.255Z,41.40
2018-06-05T15:38:05.523Z,42.10
2018-06-05T15:40:33.795Z,42.80
2018-06-05T15:43:02.057Z,43.30
2018-06-05T15:45:30.319Z,43.60
2018-06-05T15:47:58.586Z,43.80
2018-06-05T15:50:26.890Z,43.80
2018-06-05T15:55:23.176Z,43.40
2018-06-05T15:57:51.526Z,43.80
2018-06-05T16:00:19.781Z,44.00
2018-06-05T16:02:48.058Z,44.30
2018-06-05T16:05:16.314Z,44.00
2018-06-05T16:07:44.562Z,43.60
2018-06-05T16:15:08.864Z,43.30
2018-06-05T16:17:37.147Z,42.70
2018-06-05T16:20:05.418Z,42.10
2018-06-05T16:22:34.546Z,42.40
2018-06-05T16:25:02.784Z,42.60
2018-06-05T16:27:31.052Z,43.10
2018-06-05T16:29:59.566Z,42.80
2018-06-05T16:32:27.800Z,42.80
2018-06-05T16:34:56.044Z,43.10
2018-06-05T16:39:52.251Z,43.60
2018-06-05T16:42:20.474Z,43.90
2018-06-05T16:44:48.720Z,44.10
2018-06-05T16:47:16.953Z,44.10
2018-06-05T16:49:45.562Z,44.10
2018-06-05T16:52:13.819Z,43.90
2018-06-05T16:54:42.071Z,43.60
2018-06-05T16:57:10.359Z,43.50
2018-06-05T16:59:38.618Z,43.00
2018-06-05T17:02:07.780Z,42.70
2018-06-05T17:04:36.205Z,42.20
2018-06-05T17:07:04.436Z,41.80
2018-06-05T17:09:32.710Z,41.30
2018-06-05T17:12:00.947Z,40.50
2018-06-05T17:14:29.234Z,40.60
2018-06-05T17:16:57.463Z,40.70
2018-06-05T17:19:26.032Z,40.90
2018-06-05T17:21:54.345Z,40.90
2018-06-05T17:26:50.566Z,40.70
2018-06-05T17:29:18.839Z,40.50
2018-06-05T17:31:47.291Z,40.50
2018-06-05T17:34:15.574Z,40.50
2018-06-05T17:36:43.838Z,40.50
2018-06-05T17:39:12.098Z,39.90
2018-06-05T17:41:40.375Z,39.20
2018-06-05T17:44:08.638Z,37.90
2018-06-05T17:46:36.919Z,36.70
2018-06-05T17:49:05.155Z,35.80
2018-06-05T17:51:33.400Z,35.10
2018-06-05T17:54:01.650Z,34.20
2018-06-05T17:56:29.955Z,33.30
2018-06-05T17:58:58.220Z,32.60
2018-06-05T18:01:26.465Z,32.10
2018-06-05T18:03:54.736Z,31.50
2018-06-05T18:06:22.986Z,31.00
2018-06-05T18:08:51.247Z,30.50
2018-06-05T18:11:19.516Z,30.00
2018-06-05T18:13:47.762Z,29.70
2018-06-05T18:16:16.021Z,29.40
2018-06-05T18:18:44.302Z,29.20
2018-06-05T18:21:12.632Z,29.00
2018-06-05T18:23:41.866Z,28.90
2018-06-05T18:26:10.108Z,28.70
2018-06-05T18:28:38.363Z,28.50
2018-06-05T18:31:06.635Z,28.40
2018-06-05T18:33:34.905Z,28.30
2018-06-05T18:36:03.154Z,28.10
2018-06-05T18:38:31.419Z,28.00
2018-06-05T18:43:27.708Z,27.80
2018-06-05T18:45:55.977Z,27.70
2018-06-05T18:50:52.243Z,27.50
2018-06-05T18:53:20.499Z,27.40
2018-06-05T18:55:48.786Z,27.20
2018-06-05T18:58:17.055Z,27.10
2018-06-05T19:00:45.372Z,27.00
2018-06-05T19:03:13.558Z,27.00
2018-06-05T19:05:41.853Z,26.80
2018-06-05T19:08:10.094Z,26.70
2018-06-05T19:10:39.409Z,26.60
2018-06-05T19:13:07.674Z,26.50
2018-06-05T19:15:35.935Z,26.40
2018-06-05T19:18:04.196Z,26.30
2018-06-05T19:20:32.452Z,26.20
2018-06-05T19:23:00.718Z,26.00
2018-06-05T19:27:56.996Z,25.80
2018-06-05T19:30:25.277Z,25.60
2018-06-05T19:32:53.561Z,25.50
2018-06-05T19:35:21.823Z,25.50
2018-06-05T19:37:50.100Z,25.40
2018-06-05T19:40:18.368Z,25.30
2018-06-05T19:42:46.629Z,25.10
2018-06-05T19:45:14.887Z,25.00
2018-06-05T19:47:43.175Z,24.90
2018-06-05T19:50:11.451Z,24.80
2018-06-05T19:52:39.811Z,24.70
2018-06-05T19:55:08.061Z,24.60
2018-06-05T19:57:36.314Z,24.50
2018-06-05T20:00:04.617Z,24.30
2018-06-05T20:02:32.959Z,24.30
2018-06-05T20:05:01.187Z,24.20
2018-06-05T20:07:29.456Z,24.00
2018-06-05T20:09:57.720Z,24.00
2018-06-05T20:12:26.039Z,23.90
2018-06-05T20:14:54.270Z,23.80
2018-06-05T20:17:22.519Z,23.70
2018-06-05T20:19:50.775Z,23.60
2018-06-05T20:22:19.046Z,23.50
2018-06-05T20:24:47.284Z,23.40
2018-06-05T20:27:15.560Z,23.40
2018-06-05T20:29:43.821Z,23.20
2018-06-05T20:32:12.138Z,23.20
2018-06-05T20:34:40.426Z,23.10
2018-06-05T20:37:08.711Z,23.10
2018-06-05T20:39:36.959Z,23.00
2018-06-05T20:42:05.207Z,22.90
2018-06-05T20:44:33.461Z,22.80
2018-06-05T20:47:01.972Z,22.70
2018-06-05T20:49:30.247Z,22.70
2018-06-05T20:51:58.575Z,22.60
2018-06-05T20:54:26.775Z,22.40
2018-06-05T20:56:55.022Z,22.40
2018-06-05T20:59:23.263Z,22.30
2018-06-05T21:01:51.525Z,22.20
2018-06-05T21:04:19.796Z,22.20
2018-06-05T21:06:48.150Z,22.10
2018-06-05T21:09:16.415Z,22.10
2018-06-05T21:11:44.732Z,22.00
2018-06-05T21:14:12.987Z,22.00
2018-06-05T21:16:41.240Z,21.90
2018-06-05T21:19:09.923Z,21.80
2018-06-05T21:21:38.226Z,21.80
2018-06-05T21:24:06.538Z,21.70
2018-06-05T21:26:34.752Z,21.70
2018-06-05T21:29:03.046Z,21.70
2018-06-05T21:31:31.314Z,21.60
2018-06-05T21:33:59.596Z,21.50
2018-06-05T21:36:27.838Z,21.50
2018-06-05T21:38:56.266Z,21.40
2018-06-05T21:41:24.506Z,21.30
2018-06-05T21:43:52.760Z,21.20
2018-06-05T21:46:21.019Z,21.20
2018-06-05T21:48:49.775Z,21.10
2018-06-05T21:51:18.020Z,21.00
2018-06-05T21:53:46.352Z,20.90
2018-06-05T21:56:14.622Z,20.90
2018-06-05T21:58:42.872Z,20.90
2018-06-05T22:01:11.129Z,20.80
2018-06-05T22:03:39.424Z,20.70
2018-06-05T22:06:07.735Z,20.70
2018-06-05T22:08:35.999Z,20.70
2018-06-05T22:11:04.237Z,20.60
2018-06-05T22:13:32.514Z,20.50
2018-06-05T22:16:00.814Z,20.50
2018-06-05T22:18:29.055Z,20.40
2018-06-05T22:20:57.331Z,20.40
2018-06-05T22:23:25.578Z,20.20
2018-06-05T22:25:53.829Z,20.20
2018-06-05T22:28:22.106Z,20.10
2018-06-05T22:30:50.357Z,20.10
2018-06-05T22:40:42.577Z,19.90
2018-06-05T22:43:10.860Z,19.90
2018-06-05T22:45:39.134Z,19.90
2018-06-05T22:48:07.384Z,19.80
2018-06-05T22:50:35.651Z,19.80
2018-06-05T22:53:03.932Z,19.70
2018-06-05T22:55:32.194Z,19.70
2018-06-05T22:58:00.478Z,19.70
2018-06-05T23:00:32.403Z,19.60
2018-06-05T23:03:00.683Z,19.60
2018-06-05T23:05:28.937Z,19.60
2018-06-05T23:07:57.218Z,19.50
2018-06-05T23:10:25.494Z,19.40
2018-06-05T23:12:53.759Z,19.40
2018-06-05T23:15:21.995Z,19.50
2018-06-05T23:17:50.268Z,19.40
2018-06-05T23:20:18.544Z,19.30
2018-06-05T23:22:46.781Z,19.30
2018-06-05T23:25:15.064Z,19.20
2018-06-05T23:27:43.330Z,19.20
2018-06-05T23:30:11.592Z,19.20
2018-06-05T23:32:39.915Z,19.20
2018-06-05T23:35:08.152Z,19.10
2018-06-05T23:37:36.410Z,19.10
2018-06-05T23:42:32.769Z,19.00
2018-06-05T23:45:00.960Z,19.00
2018-06-05T23:47:29.228Z,18.90
2018-06-05T23:49:57.485Z,18.90
2018-06-05T23:52:25.752Z,18.90
2018-06-05T23:54:54.016Z,18.80
2018-06-05T23:59:50.283Z,18.70
